Flight Track Log - Related Links

Times and Time Zones

All times are in EDT time to prevent confusion due to time zone crossing. See the N777NC flight status page for this flight to view local times or setup timezone preferences in your user account.

Time Position Orientation Groundspeed Altitude Reporting Facility
EDT Latitude Longitude Course Direction KTS MPH feet Rate Location/Type
Wed 10:17:36 AM 40.3919 -80.2969 201° Southwest 237 273 4,800  Level Cleveland Center
Wed 10:19:36 AM 40.2525 -80.3656 201° Southwest 254 292 8,400 1,800 Climbing Cleveland Center
Wed 10:20:36 AM 40.1753 -80.3794 188° South 284 327 10,200 1,900 Climbing Cleveland Center
Wed 10:21:36 AM 40.0919 -80.3986 190° South 302 348 12,200 1,750 Climbing Cleveland Center
Wed 10:22:36 AM 40.0044 -80.4231 192° South 317 365 13,700 1,250 Climbing Cleveland Center
Wed 10:23:36 AM 39.9128 -80.4694 201° Southwest 330 380 14,700 1,100 Climbing Cleveland Center
Wed 10:24:36 AM 39.8169 -80.5264 205° Southwest 359 413 15,900 1,450 Climbing Cleveland Center
Wed 10:25:36 AM 39.7233 -80.5939 209° Southwest 380 437 17,600 1,688 Climbing Cleveland Center
Wed 10:26:44 AM 39.6111 -80.6769 210° Southwest 384 442 19,500 1,385 Climbing Indianapolis Center
Wed 10:27:46 AM 39.5161 -80.7469 210° Southwest 390 449 20,600 1,065 Climbing Indianapolis Center
Wed 10:29:50 AM 39.3267 -80.9003 212° Southwest 401 461 22,800 1,065 Climbing Indianapolis Center
Wed 10:30:52 AM 39.2331 -80.9878 216° Southwest 412 474 23,900 1,016 Climbing Indianapolis Center
Wed 10:31:54 AM 39.1206 -81.0931 216° Southwest 415 478 24,900 871 Climbing Indianapolis Center
Wed 10:32:56 AM 39.0261 -81.1828 216° Southwest 421 484 25,700 774 Climbing Indianapolis Center
Wed 10:33:58 AM 38.9306 -81.2742 217° Southwest 426 490 26,500 677 Climbing Indianapolis Center
Wed 10:35:00 AM 38.8328 -81.3661 216° Southwest 433 498 27,100 677 Climbing Indianapolis Center
Wed 10:36:02 AM 38.7167 -81.4697 215° Southwest 441 507 27,900 435 Climbing Indianapolis Center
Wed 10:37:04 AM 38.6142 -81.5622 215° Southwest 449 517 28,000 435 Climbing Indianapolis Center
Wed 10:38:06 AM 38.5083 -81.6408 210° Southwest 462 532 28,800 927 Climbing Indianapolis Center
Wed 10:39:07 AM 38.3986 -81.7214 210° Southwest 455 524 29,900 976 Climbing Indianapolis Center
Wed 10:40:09 AM 38.2908 -81.7989 209° Southwest 447 514 30,800 871 Climbing Indianapolis Center
Wed 10:41:11 AM 38.1483 -81.8533 197° South 447 514 31,700 581 Climbing Indianapolis Center
Wed 10:42:13 AM 38.0314 -81.9047 199° South 444 511 32,000 145 Climbing Indianapolis Center
Wed 10:43:15 AM 37.9122 -81.9583 200° South 452 520 32,000  Level Indianapolis Center
Wed 10:45:12 AM 37.6894 -82.0722 202° Southwest 476 548 32,000  Level Atlanta Center
Wed 10:46:12 AM 37.5697 -82.1356 203° Southwest 488 562 32,000  Level Atlanta Center
Wed 10:47:12 AM 37.4497 -82.1933 201° Southwest 481 554 32,000  Level Atlanta Center
Wed 10:48:12 AM 37.3297 -82.2483 200° South 469 540 32,000  Level Atlanta Center
Wed 10:49:12 AM 37.2053 -82.2981 198° South 464 534 32,000  Level Atlanta Center
Wed 10:50:12 AM 37.0811 -82.3556 200° South 464 534 32,000  Level Atlanta Center
Wed 10:51:12 AM 36.9589 -82.4128 201° Southwest 469 540 32,000  Level Atlanta Center
Wed 10:52:12 AM 36.8242 -82.4750 200° South 469 540 32,000 250 Level Atlanta Center
Wed 10:53:12 AM 36.7019 -82.5369 202° Southwest 469 540 32,500 800 Climbing Atlanta Center
Wed 10:54:12 AM 36.5836 -82.5961 202° Southwest 469 540 33,600 750 Climbing Atlanta Center
Wed 10:55:12 AM 36.4697 -82.6525 202° Southwest 453 521 34,000 200 Climbing Atlanta Center
Wed 10:56:12 AM 36.3533 -82.7008 198° South 448 516 34,000  Level Atlanta Center
Wed 10:57:12 AM 36.2331 -82.7492 198° South 443 510 34,000  Level Atlanta Center
Wed 10:58:12 AM 36.1103 -82.7897 195° South 443 510 34,000  Level Atlanta Center
Wed 10:59:12 AM 35.9856 -82.8275 194° South 454 522 34,000  Level Atlanta Center
Wed 11:00:12 AM 35.8650 -82.8625 193° South 454 522 34,000  Level Atlanta Center
Wed 11:01:12 AM 35.7400 -82.9028 195° South 454 522 34,000  Level Atlanta Center
Wed 11:02:12 AM 35.6153 -82.9403 194° South 454 522 34,000  Level Atlanta Center
Wed 11:03:12 AM 35.4883 -82.9803 194° South 459 528 34,000  Level Atlanta Center
Wed 11:04:12 AM 35.3656 -83.0200 195° South 459 528 34,000 -100 Level Atlanta Center
Wed 11:05:12 AM 35.2408 -83.0647 196° South 464 534 33,800 -400 Descending Atlanta Center
Wed 11:06:12 AM 35.1161 -83.1169 199° South 469 540 33,200 -750 Descending Atlanta Center
Wed 11:07:12 AM 34.9892 -83.1742 200° South 482 555 32,300 -950 Descending Atlanta Center
Wed 11:08:12 AM 34.8747 -83.2236 200° South 482 555 31,300 -1,100 Descending Atlanta Center
Wed 11:09:12 AM 34.7375 -83.2881 201° Southwest 487 560 30,100 -1,600 Descending Atlanta Center
Wed 11:10:12 AM 34.6292 -83.3547 207° Southwest 487 560 28,100 -2,850 Descending Atlanta Center
Wed 11:11:12 AM 34.5089 -83.4589 216° Southwest 487 560 24,400 -3,500 Descending Atlanta Center
Wed 11:12:12 AM 34.4133 -83.5603 221° Southwest 481 554 21,100 -3,200 Descending Atlanta Center
Wed 11:13:12 AM 34.3175 -83.6614 221° Southwest 465 535 18,000 -3,150 Descending Atlanta Center
Wed 11:14:12 AM 34.2281 -83.7525 220° Southwest 442 509 14,800 -2,850 Descending Atlanta Center
Wed 11:15:12 AM 34.1364 -83.8331 216° Southwest 424 488 12,300 -1,500 Descending Atlanta Center
Wed 11:16:12 AM 34.0614 -83.9008 217° Southwest 374 430 11,800 -1,300 Descending Atlanta Center
Wed 11:17:12 AM 33.9967 -83.9661 220° Southwest 321 369 9,700 -1,350 Descending Atlanta Center
Wed 11:18:12 AM 33.9133 -83.9711 183° South 288 331 9,100 -350 Descending Atlanta Center
Wed 11:19:12 AM 33.8381 -83.9714 180° South 301 346 9,000 -500 Descending Atlanta Center
Wed 11:20:12 AM 33.7567 -83.9589 173° South 301 346 8,100 -900 Descending Atlanta Center
Wed 11:21:12 AM 33.6814 -83.9339 165° South 287 330 7,200 -550 Descending Atlanta Center
Wed 11:22:12 AM 33.6356 -83.9789 219° Southwest 197 227 7,000 -500 Descending Atlanta Center
Wed 11:24:12 AM 33.6333 -84.1167 269° West 201 231 5,700 -767 Descending Atlanta TRACON
Wed 11:25:12 AM 33.6333 -84.1833 270° West 188 216 4,700 -950 Descending Atlanta TRACON
Wed 11:26:12 AM 33.6333 -84.2333 270° West 184 212 3,800 -950 Descending Atlanta TRACON
Wed 11:27:12 AM 33.6333 -84.3000 270° West 196 226 2,800 -950 Descending Atlanta TRACON
Wed 11:28:12 AM 33.6333 -84.3667 270° West 178 205 1,900 -900 Descending Atlanta TRACON
Wed 11:30:00 AM 33.6333 -84.4167 220° Southwest  Level FlightAware Approximate
Wed 11:37:00 AM 33.6367 -84.4279 220° Southwest  Level Estimated

Login

Don't have an account? Register now (free) for customized features, flight alerts, and more!